CGZMA CYXU-CYXU
Flight info
| Callsign | CGZMA |
|---|---|
| Flight time | 0h 26m |
| Altitude | 3000 |
| Route | CYXU/33 VFR NORTHWEST |
| Aircraft | C185 |
Departure
| Time | 2026-04-29 23:32 |
|---|---|
| Airport | London International Airport (CYXU) |
Arrival
| Time | 2026-04-29 23:58 |
|---|---|
| Airport | London International Airport (CYXU) |
| Time | Latitude | Longitude | Altitude | Speed | Heading |
|---|---|---|---|---|---|
| 2026-04-29 23:11 | 43.31218 | -81.65178 | 3166 ft | 92 kts | 304° |
| 2026-04-29 23:12 | 43.31429 | -81.66036 | 3068 ft | 94 kts | 296° |
| 2026-04-29 23:12 | 43.31590 | -81.66881 | 2963 ft | 93 kts | 296° |
| 2026-04-29 23:12 | 43.31806 | -81.67718 | 2849 ft | 91 kts | 304° |
| 2026-04-29 23:12 | 43.32119 | -81.68428 | 2792 ft | 83 kts | 319° |
| 2026-04-29 23:13 | 43.32515 | -81.69020 | 2691 ft | 85 kts | 320° |
| 2026-04-29 23:13 | 43.32914 | -81.69599 | 2622 ft | 83 kts | 324° |
| 2026-04-29 23:13 | 43.33358 | -81.70101 | 2550 ft | 81 kts | 326° |
| 2026-04-29 23:13 | 43.33736 | -81.70688 | 2457 ft | 85 kts | 312° |
| 2026-04-29 23:14 | 43.33996 | -81.71436 | 2377 ft | 88 kts | 300° |
| 2026-04-29 23:14 | 43.34119 | -81.72269 | 2278 ft | 96 kts | 277° |
| 2026-04-29 23:14 | 43.33896 | -81.73166 | 2211 ft | 104 kts | 244° |
| 2026-04-29 23:14 | 43.33367 | -81.73891 | 2132 ft | 110 kts | 223° |
| 2026-04-29 23:15 | 43.32784 | -81.74529 | 2069 ft | 107 kts | 236° |
| 2026-04-29 23:15 | 43.32445 | -81.75389 | 1962 ft | 98 kts | 270° |
| 2026-04-29 23:15 | 43.32518 | -81.76255 | 1847 ft | 88 kts | 309° |
| 2026-04-29 23:15 | 43.32921 | -81.76796 | 1805 ft | 79 kts | 335° |
| 2026-04-29 23:16 | 43.33384 | -81.77189 | 1751 ft | 78 kts | 328° |
| 2026-04-29 23:16 | 43.33760 | -81.77758 | 1673 ft | 81 kts | 317° |
| 2026-04-29 23:16 | 43.34108 | -81.78352 | 1584 ft | 81 kts | 318° |
| 2026-04-29 23:16 | 43.34501 | -81.78904 | 1514 ft | 79 kts | 322° |
| 2026-04-29 23:17 | 43.34839 | -81.79503 | 1435 ft | 82 kts | 310° |
| 2026-04-29 23:17 | 43.35104 | -81.80201 | 1355 ft | 85 kts | 298° |
| 2026-04-29 23:17 | 43.35207 | -81.81018 | 1313 ft | 86 kts | 280° |
| 2026-04-29 23:17 | 43.35161 | -81.81862 | 1212 ft | 91 kts | 270° |
| 2026-04-29 23:18 | 43.35007 | -81.82706 | 1125 ft | 93 kts | 264° |
| 2026-04-29 23:18 | 43.34865 | -81.83557 | 1043 ft | 89 kts | 270° |
| 2026-04-29 23:18 | 43.34599 | -81.84366 | 892 ft | 102 kts | 239° |
| 2026-04-29 23:18 | 43.34018 | -81.84861 | 887 ft | 104 kts | 188° |
| 2026-04-29 23:19 | 43.33446 | -81.84394 | 919 ft | 98 kts | 99° |
| 2026-04-29 23:19 | 43.33682 | -81.83678 | 861 ft | 87 kts | 13° |
| 2026-04-29 23:19 | 43.34204 | -81.83796 | 822 ft | 71 kts | 323° |
| 2026-04-29 23:19 | 43.34294 | -81.84462 | 679 ft | 79 kts | 268° |
| 2026-04-29 23:20 | 43.34166 | -81.85126 | 639 ft | 62 kts | 269° |
| 2026-04-29 23:20 | 43.34006 | -81.85652 | 600 ft | 60 kts | 244° |
| 2026-04-29 23:20 | 43.33730 | -81.86078 | 648 ft | 61 kts | 239° |
| 2026-04-29 23:20 | 43.33403 | -81.86486 | 631 ft | 68 kts | 218° |
| 2026-04-29 23:21 | 43.32944 | -81.86734 | 601 ft | 71 kts | 193° |
| 2026-04-29 23:21 | 43.32462 | -81.86831 | 583 ft | 69 kts | 185° |
| 2026-04-29 23:21 | 43.32094 | -81.86870 | 583 ft | 30 kts | 178° |
| 2026-04-29 23:21 | 43.31956 | -81.86856 | 583 ft | 14 kts | 180° |
| 2026-04-29 23:22 | 43.31897 | -81.86944 | 584 ft | 35 kts | 294° |
| 2026-04-29 23:22 | 43.31949 | -81.87428 | 832 ft | 64 kts | 296° |
| 2026-04-29 23:22 | 43.32072 | -81.88139 | 1152 ft | 81 kts | 295° |
| 2026-04-29 23:22 | 43.32286 | -81.88780 | 1514 ft | 69 kts | 334° |
| 2026-04-29 23:23 | 43.32742 | -81.88798 | 1806 ft | 71 kts | 26° |
| 2026-04-29 23:23 | 43.32998 | -81.88177 | 2069 ft | 85 kts | 65° |
| 2026-04-29 23:23 | 43.33055 | -81.87358 | 2364 ft | 91 kts | 86° |
| 2026-04-29 23:23 | 43.32829 | -81.86481 | 2592 ft | 106 kts | 116° |
| 2026-04-29 23:24 | 43.32279 | -81.85724 | 2768 ft | 115 kts | 126° |
| 2026-04-29 23:24 | 43.31753 | -81.84921 | 3039 ft | 111 kts | 125° |
| 2026-04-29 23:24 | 43.31174 | -81.84229 | 3307 ft | 110 kts | 136° |
| 2026-04-29 23:24 | 43.30551 | -81.83611 | 3551 ft | 110 kts | 143° |
| 2026-04-29 23:25 | 43.29897 | -81.83069 | 3772 ft | 111 kts | 147° |
| 2026-04-29 23:25 | 43.29252 | -81.82478 | 3992 ft | 111 kts | 142° |
| 2026-04-29 23:25 | 43.28596 | -81.81919 | 4198 ft | 112 kts | 150° |
| 2026-04-29 23:25 | 43.27888 | -81.81429 | 4382 ft | 115 kts | 155° |
| 2026-04-29 23:26 | 43.27161 | -81.80997 | 4614 ft | 111 kts | 159° |
| 2026-04-29 23:26 | 43.26441 | -81.80590 | 4812 ft | 112 kts | 160° |
| 2026-04-29 23:26 | 43.25723 | -81.80175 | 4997 ft | 110 kts | 160° |
| 2026-04-29 23:26 | 43.25032 | -81.79811 | 5224 ft | 106 kts | 162° |
| 2026-04-29 23:27 | 43.24349 | -81.79416 | 5369 ft | 108 kts | 155° |
| 2026-04-29 23:27 | 43.23789 | -81.78754 | 5495 ft | 110 kts | 115° |
| 2026-04-29 23:27 | 43.23601 | -81.77750 | 5590 ft | 107 kts | 87° |
| 2026-04-29 23:27 | 43.23302 | -81.76794 | 5681 ft | 118 kts | 116° |
| 2026-04-29 23:28 | 43.22926 | -81.75777 | 5787 ft | 118 kts | 105° |
| 2026-04-29 23:28 | 43.22685 | -81.74714 | 5941 ft | 115 kts | 99° |
| 2026-04-29 23:28 | 43.22418 | -81.73691 | 6120 ft | 113 kts | 108° |
| 2026-04-29 23:28 | 43.22101 | -81.72689 | 6224 ft | 116 kts | 112° |
| 2026-04-29 23:29 | 43.21724 | -81.71721 | 6373 ft | 113 kts | 119° |
| 2026-04-29 23:29 | 43.21311 | -81.70790 | 6476 ft | 114 kts | 116° |
| 2026-04-29 23:29 | 43.20924 | -81.69858 | 6613 ft | 112 kts | 117° |
| 2026-04-29 23:29 | 43.20595 | -81.68891 | 6702 ft | 112 kts | 105° |
| 2026-04-29 23:30 | 43.20457 | -81.67858 | 6786 ft | 111 kts | 86° |
| 2026-04-29 23:30 | 43.20297 | -81.66820 | 6911 ft | 111 kts | 112° |
| 2026-04-29 23:30 | 43.19886 | -81.65917 | 6989 ft | 115 kts | 129° |
| 2026-04-29 23:30 | 43.19537 | -81.65346 | 7046 ft | 115 kts | 128° |
| 2026-04-29 23:31 | 43.19131 | -81.64437 | 7210 ft | 109 kts | 118° |
| 2026-04-29 23:31 | 43.18800 | -81.63532 | 7363 ft | 107 kts | 116° |
| 2026-04-29 23:31 | 43.18510 | -81.62631 | 7476 ft | 101 kts | 109° |
| 2026-04-29 23:31 | 43.18231 | -81.61746 | 7599 ft | 104 kts | 120° |
| 2026-04-29 23:32 | 43.17966 | -81.60830 | 7930 ft | 102 kts | 95° |
| 2026-04-29 23:32 | 43.17792 | -81.59889 | 8198 ft | 103 kts | 122° |
| 2026-04-29 23:32 | 43.17409 | -81.59072 | 8471 ft | 102 kts | 133° |
| 2026-04-29 23:32 | 43.16992 | -81.58247 | 8695 ft | 105 kts | 124° |
| 2026-04-29 23:33 | 43.16610 | -81.57384 | 8733 ft | 106 kts | 126° |
| 2026-04-29 23:33 | 43.16256 | -81.56518 | 8760 ft | 103 kts | 123° |
| 2026-04-29 23:33 | 43.15922 | -81.55662 | 8769 ft | 100 kts | 125° |
| 2026-04-29 23:33 | 43.15567 | -81.54851 | 8769 ft | 98 kts | 129° |
| 2026-04-29 23:34 | 43.15210 | -81.54062 | 8758 ft | 97 kts | 126° |
| 2026-04-29 23:34 | 43.14877 | -81.53261 | 8753 ft | 96 kts | 126° |
| 2026-04-29 23:34 | 43.14538 | -81.52504 | 8733 ft | 95 kts | 129° |
| 2026-04-29 23:34 | 43.14164 | -81.51742 | 8714 ft | 94 kts | 134° |
| 2026-04-29 23:35 | 43.13834 | -81.50943 | 8596 ft | 106 kts | 110° |
| 2026-04-29 23:35 | 43.13501 | -81.50044 | 8503 ft | 112 kts | 127° |
| 2026-04-29 23:35 | 43.13062 | -81.49172 | 8432 ft | 116 kts | 125° |
| 2026-04-29 23:35 | 43.12630 | -81.48228 | 8382 ft | 118 kts | 124° |
| 2026-04-29 23:36 | 43.12241 | -81.47241 | 8321 ft | 121 kts | 121° |
| 2026-04-29 23:36 | 43.11734 | -81.46390 | 8404 ft | 107 kts | 134° |
| 2026-04-29 23:36 | 43.11269 | -81.45579 | 8356 ft | 110 kts | 133° |
| 2026-04-29 23:36 | 43.10761 | -81.44866 | 8374 ft | 104 kts | 149° |
| 2026-04-29 23:37 | 43.10270 | -81.44037 | 8215 ft | 119 kts | 126° |
| 2026-04-29 23:37 | 43.09713 | -81.43162 | 8069 ft | 125 kts | 146° |
| 2026-04-29 23:37 | 43.08995 | -81.42582 | 8021 ft | 121 kts | 160° |
| 2026-04-29 23:37 | 43.08310 | -81.41819 | 7809 ft | 137 kts | 126° |
| 2026-04-29 23:38 | 43.07894 | -81.40619 | 7676 ft | 140 kts | 114° |
| 2026-04-29 23:38 | 43.07311 | -81.39690 | 7704 ft | 128 kts | 149° |
| 2026-04-29 23:38 | 43.06581 | -81.38826 | 7429 ft | 144 kts | 135° |
| 2026-04-29 23:38 | 43.05939 | -81.37794 | 7283 ft | 142 kts | 134° |
| 2026-04-29 23:39 | 43.05172 | -81.36909 | 6903 ft | 146 kts | 150° |
| 2026-04-29 23:39 | 43.04394 | -81.36013 | 6556 ft | 149 kts | 135° |
| 2026-04-29 23:39 | 43.03745 | -81.34901 | 6247 ft | 149 kts | 120° |
| 2026-04-29 23:39 | 43.03125 | -81.33917 | 6206 ft | 130 kts | 137° |
| 2026-04-29 23:40 | 43.02548 | -81.33028 | 6158 ft | 117 kts | 132° |
| 2026-04-29 23:40 | 43.01981 | -81.32219 | 5928 ft | 124 kts | 141° |
| 2026-04-29 23:40 | 43.01287 | -81.31454 | 5673 ft | 129 kts | 132° |
| 2026-04-29 23:40 | 43.00758 | -81.30488 | 5567 ft | 120 kts | 130° |
| 2026-04-29 23:41 | 43.00162 | -81.29668 | 5366 ft | 124 kts | 135° |
| 2026-04-29 23:41 | 42.99565 | -81.28855 | 5259 ft | 118 kts | 136° |
| 2026-04-29 23:41 | 42.98967 | -81.28107 | 5150 ft | 115 kts | 139° |
| 2026-04-29 23:41 | 42.98354 | -81.27424 | 5023 ft | 115 kts | 139° |
| 2026-04-29 23:42 | 42.97801 | -81.26651 | 4912 ft | 113 kts | 127° |
| 2026-04-29 23:42 | 42.97288 | -81.25842 | 4811 ft | 111 kts | 130° |
| 2026-04-29 23:42 | 42.96794 | -81.25033 | 4690 ft | 112 kts | 126° |
| 2026-04-29 23:42 | 42.96270 | -81.24246 | 4579 ft | 111 kts | 129° |
| 2026-04-29 23:43 | 42.95785 | -81.23453 | 4506 ft | 108 kts | 128° |
| 2026-04-29 23:43 | 42.95268 | -81.22701 | 4384 ft | 110 kts | 135° |
| 2026-04-29 23:43 | 42.94703 | -81.22016 | 4291 ft | 107 kts | 136° |
| 2026-04-29 23:43 | 42.94167 | -81.21307 | 4183 ft | 106 kts | 130° |
| 2026-04-29 23:44 | 42.93698 | -81.20546 | 4088 ft | 104 kts | 124° |
| 2026-04-29 23:44 | 42.93190 | -81.19844 | 4003 ft | 104 kts | 135° |
| 2026-04-29 23:44 | 42.92643 | -81.19204 | 3923 ft | 104 kts | 136° |
| 2026-04-29 23:44 | 42.92087 | -81.18562 | 3850 ft | 104 kts | 137° |
| 2026-04-29 23:45 | 42.91558 | -81.17909 | 3757 ft | 104 kts | 133° |
| 2026-04-29 23:45 | 42.91051 | -81.17172 | 3673 ft | 111 kts | 120° |
| 2026-04-29 23:45 | 42.90583 | -81.16370 | 3761 ft | 104 kts | 129° |
| 2026-04-29 23:45 | 42.90064 | -81.15695 | 3792 ft | 103 kts | 131° |
| 2026-04-29 23:46 | 42.89520 | -81.15038 | 3801 ft | 105 kts | 135° |
| 2026-04-29 23:46 | 42.88969 | -81.14370 | 3815 ft | 107 kts | 131° |
| 2026-04-29 23:46 | 42.88450 | -81.13646 | 3829 ft | 107 kts | 129° |
| 2026-04-29 23:46 | 42.87953 | -81.12872 | 3809 ft | 110 kts | 128° |
| 2026-04-29 23:47 | 42.87429 | -81.12082 | 3767 ft | 113 kts | 124° |
| 2026-04-29 23:47 | 42.86915 | -81.11257 | 3711 ft | 117 kts | 126° |
| 2026-04-29 23:47 | 42.86369 | -81.10401 | 3589 ft | 124 kts | 130° |
| 2026-04-29 23:47 | 42.85759 | -81.09570 | 3511 ft | 126 kts | 134° |
| 2026-04-29 23:48 | 42.85090 | -81.08779 | 3430 ft | 128 kts | 135° |
| 2026-04-29 23:48 | 42.84497 | -81.07923 | 3367 ft | 122 kts | 109° |
| 2026-04-29 23:48 | 42.84490 | -81.06856 | 3335 ft | 110 kts | 66° |
| 2026-04-29 23:48 | 42.84899 | -81.06017 | 3286 ft | 103 kts | 38° |
| 2026-04-29 23:49 | 42.85482 | -81.05423 | 3194 ft | 105 kts | 35° |
| 2026-04-29 23:49 | 42.85977 | -81.04667 | 3113 ft | 110 kts | 50° |
| 2026-04-29 23:49 | 42.86452 | -81.03845 | 3044 ft | 110 kts | 46° |
| 2026-04-29 23:49 | 42.86936 | -81.03043 | 3015 ft | 108 kts | 44° |
| 2026-04-29 23:50 | 42.87448 | -81.02292 | 2945 ft | 108 kts | 44° |
| 2026-04-29 23:50 | 42.87913 | -81.01480 | 2912 ft | 109 kts | 49° |
| 2026-04-29 23:50 | 42.88827 | -80.99844 | 2828 ft | 107 kts | 37° |
| 2026-04-29 23:51 | 42.89370 | -80.99161 | 2776 ft | 107 kts | 38° |
| 2026-04-29 23:51 | 42.89985 | -80.99041 | 2895 ft | 96 kts | 335° |
| 2026-04-29 23:51 | 42.90516 | -80.99608 | 2853 ft | 102 kts | 313° |
| 2026-04-29 23:51 | 42.90837 | -81.00509 | 2774 ft | 111 kts | 296° |
| 2026-04-29 23:52 | 42.91141 | -81.01442 | 2819 ft | 101 kts | 314° |
| 2026-04-29 23:52 | 42.91707 | -81.01924 | 2752 ft | 92 kts | 348° |
| 2026-04-29 23:52 | 42.92296 | -81.02087 | 2744 ft | 84 kts | 335° |
| 2026-04-29 23:52 | 42.92758 | -81.02587 | 2663 ft | 86 kts | 325° |
| 2026-04-29 23:53 | 42.93205 | -81.03083 | 2638 ft | 81 kts | 324° |
| 2026-04-29 23:53 | 42.93612 | -81.03604 | 2571 ft | 81 kts | 322° |
| 2026-04-29 23:53 | 42.94014 | -81.04147 | 2484 ft | 82 kts | 319° |
| 2026-04-29 23:53 | 42.94421 | -81.04629 | 2488 ft | 75 kts | 327° |
| 2026-04-29 23:54 | 42.94895 | -81.05060 | 2616 ft | 85 kts | 334° |
| 2026-04-29 23:54 | 42.95434 | -81.05495 | 2785 ft | 95 kts | 331° |
| 2026-04-29 23:54 | 42.95951 | -81.06051 | 2766 ft | 91 kts | 322° |
| 2026-04-29 23:54 | 42.96420 | -81.06678 | 2581 ft | 97 kts | 320° |
| 2026-04-29 23:55 | 42.96910 | -81.07310 | 2474 ft | 96 kts | 322° |
| 2026-04-29 23:55 | 42.97405 | -81.07921 | 2334 ft | 97 kts | 323° |
| 2026-04-29 23:55 | 42.97914 | -81.08497 | 2164 ft | 91 kts | 327° |
| 2026-04-29 23:55 | 42.98383 | -81.09035 | 2018 ft | 87 kts | 323° |
| 2026-04-29 23:56 | 42.98822 | -81.09581 | 1885 ft | 84 kts | 323° |
| 2026-04-29 23:56 | 42.99266 | -81.10054 | 1800 ft | 78 kts | 323° |
| 2026-04-29 23:56 | 42.99672 | -81.10549 | 1665 ft | 78 kts | 317° |
| 2026-04-29 23:56 | 43.00063 | -81.11046 | 1585 ft | 75 kts | 319° |
| 2026-04-29 23:57 | 43.00489 | -81.11524 | 1443 ft | 81 kts | 323° |
| 2026-04-29 23:57 | 43.00921 | -81.12012 | 1348 ft | 81 kts | 317° |
| 2026-04-29 23:57 | 43.01339 | -81.12529 | 1300 ft | 82 kts | 319° |
| 2026-04-29 23:57 | 43.01770 | -81.13026 | 1135 ft | 76 kts | 313° |
| 2026-04-29 23:58 | 43.02120 | -81.13454 | 1022 ft | 61 kts | 314° |
| 2026-04-29 23:58 | 43.02417 | -81.13823 | 919 ft | 56 kts | 316° |
| 2026-04-29 23:58 | 43.02683 | -81.14150 | 900 ft | 42 kts | 317° |
| 2026-04-29 23:58 | 43.02854 | -81.14357 | 901 ft | 26 kts | 321° |
| 2026-04-29 23:59 | 43.02961 | -81.14494 | 899 ft | 17 kts | 289° |
| 2026-04-29 23:59 | 43.02921 | -81.14603 | 899 ft | 12 kts | 228° |
| 2026-04-29 23:59 | 43.02880 | -81.14672 | 899 ft | 7 kts | 258° |
| 2026-04-29 23:59 | 43.02879 | -81.14676 | 899 ft | 0 kts | 270° |
| 2026-04-30 00:00 | 43.02887 | -81.14703 | 900 ft | 6 kts | 287° |
| 2026-04-30 00:00 | 43.02935 | -81.14762 | 899 ft | 11 kts | 318° |
| 2026-04-30 00:01 | 43.03000 | -81.14854 | 899 ft | 15 kts | 322° |
| 2026-04-30 00:01 | 43.03073 | -81.14936 | 899 ft | 11 kts | 318° |
| 2026-04-30 00:01 | 43.03120 | -81.14991 | 899 ft | 7 kts | 319° |
| 2026-04-30 00:01 | 43.03147 | -81.15024 | 899 ft | 4 kts | 315° |
| 2026-04-30 00:02 | 43.03166 | -81.15046 | 899 ft | 6 kts | 318° |
| 2026-04-30 00:02 | 43.03214 | -81.15107 | 899 ft | 13 kts | 320° |
| 2026-04-30 00:02 | 43.03295 | -81.15202 | 900 ft | 17 kts | 320° |
| 2026-04-30 00:02 | 43.03389 | -81.15312 | 900 ft | 16 kts | 319° |
| 2026-04-30 00:03 | 43.03465 | -81.15402 | 900 ft | 17 kts | 320° |
| 2026-04-30 00:03 | 43.03577 | -81.15534 | 899 ft | 22 kts | 322° |
| 2026-04-30 00:03 | 43.03670 | -81.15650 | 899 ft | 14 kts | 320° |
| 2026-04-30 00:03 | 43.03697 | -81.15769 | 899 ft | 19 kts | 260° |
| 2026-04-30 00:04 | 43.03675 | -81.15929 | 900 ft | 14 kts | 257° |
| 2026-04-30 00:04 | 43.03659 | -81.16048 | 900 ft | 13 kts | 259° |
| 2026-04-30 00:04 | 43.03641 | -81.16179 | 900 ft | 14 kts | 257° |
| 2026-04-30 00:04 | 43.03600 | -81.16215 | 900 ft | 12 kts | 139° |